createdAt,value
2018-05-23T00:00:10.718Z,49.93
2018-05-23T00:01:10.746Z,49.84
2018-05-23T00:02:10.717Z,50.13
2018-05-23T00:03:10.758Z,50.03
2018-05-23T00:04:10.754Z,50.23
2018-05-23T00:05:10.762Z,50.23
2018-05-23T00:06:10.800Z,49.74
2018-05-23T00:07:10.780Z,50.70
2018-05-23T00:08:10.807Z,50.70
2018-05-23T00:09:10.807Z,50.42
2018-05-23T00:10:10.857Z,50.51
2018-05-23T00:11:10.834Z,50.32
2018-05-23T00:12:10.878Z,50.51
2018-05-23T00:13:10.858Z,51.45
2018-05-23T00:14:10.890Z,51.35
2018-05-23T00:15:10.882Z,51.64
2018-05-23T00:16:10.883Z,51.25
2018-05-23T00:17:10.946Z,51.28
2018-05-23T00:18:10.965Z,51.64
2018-05-23T00:19:10.935Z,50.96
2018-05-23T00:20:10.945Z,51.16
2018-05-23T00:21:10.948Z,51.25
2018-05-23T00:22:10.946Z,51.35
2018-05-23T00:23:10.998Z,51.54
2018-05-23T00:24:11.017Z,51.06
2018-05-23T00:25:11.050Z,51.16
2018-05-23T00:26:11.020Z,51.54
2018-05-23T00:27:11.021Z,52.50
2018-05-23T00:28:11.057Z,52.60
2018-05-23T00:29:11.035Z,52.79
2018-05-23T00:30:11.089Z,52.69
2018-05-23T00:31:11.089Z,52.50
2018-05-23T00:32:11.084Z,52.98
2018-05-23T00:33:11.085Z,53.05
2018-05-23T00:34:11.088Z,52.69
2018-05-23T00:35:11.145Z,52.79
2018-05-23T00:36:11.156Z,52.89
2018-05-23T00:37:11.134Z,52.40
2018-05-23T00:38:11.162Z,52.98
2018-05-23T00:39:11.184Z,53.17
2018-05-23T00:40:11.178Z,52.69
2018-05-23T00:41:11.233Z,53.08
2018-05-23T00:42:11.226Z,53.05
2018-05-23T00:43:11.252Z,52.98
2018-05-23T00:44:11.203Z,52.98
2018-05-23T00:45:11.216Z,53.27
2018-05-23T00:46:11.270Z,53.05
2018-05-23T00:47:11.260Z,52.98
2018-05-23T00:48:11.289Z,53.17
2018-05-23T00:49:11.336Z,52.60
2018-05-23T00:50:11.288Z,52.98
2018-05-23T00:51:11.307Z,53.08
2018-05-23T00:52:11.356Z,52.79
2018-05-23T00:53:11.322Z,52.86
2018-05-23T00:54:11.355Z,52.89
2018-05-23T00:55:11.369Z,53.05
2018-05-23T00:56:11.366Z,53.53
2018-05-23T00:57:11.409Z,53.24
2018-05-23T00:58:11.443Z,53.44
2018-05-23T00:59:11.441Z,53.34
2018-05-23T01:00:11.403Z,53.24
2018-05-23T01:01:11.417Z,53.63
2018-05-23T01:02:11.948Z,53.34
2018-05-23T01:03:11.433Z,53.56
2018-05-23T01:04:11.444Z,53.53
2018-05-23T01:05:11.456Z,53.05
2018-05-23T01:06:11.459Z,53.53
2018-05-23T01:07:11.489Z,53.44
2018-05-23T01:08:11.522Z,53.08
2018-05-23T01:09:11.522Z,53.53
2018-05-23T01:10:11.524Z,53.63
2018-05-23T01:11:11.531Z,53.46
2018-05-23T01:12:11.558Z,53.36
2018-05-23T01:13:11.861Z,53.27
2018-05-23T01:14:11.583Z,53.17
2018-05-23T01:15:11.582Z,53.63
2018-05-23T01:16:11.598Z,53.34
2018-05-23T01:17:11.591Z,53.44
2018-05-23T01:18:11.606Z,53.34
2018-05-23T01:19:11.684Z,53.63
2018-05-23T01:20:11.641Z,53.17
2018-05-23T01:21:11.662Z,53.56
2018-05-23T01:22:11.683Z,53.63
2018-05-23T01:23:11.683Z,53.63
2018-05-23T01:24:11.735Z,53.46
2018-05-23T01:25:11.730Z,53.27
2018-05-23T01:26:11.699Z,53.27
2018-05-23T01:27:11.711Z,54.49
2018-05-23T01:28:11.727Z,53.46
2018-05-23T01:29:11.730Z,53.56
2018-05-23T01:30:11.800Z,53.56
2018-05-23T01:31:11.782Z,53.56
2018-05-23T01:32:11.768Z,53.36
2018-05-23T01:33:11.773Z,53.17
2018-05-23T01:34:11.813Z,52.89
2018-05-23T01:35:11.903Z,53.56
2018-05-23T01:36:11.879Z,53.08
2018-05-23T01:37:11.833Z,53.46
2018-05-23T01:38:11.841Z,52.79
2018-05-23T01:39:11.846Z,53.36
2018-05-23T01:40:11.869Z,53.36
2018-05-23T01:41:11.961Z,53.46
2018-05-23T01:42:11.937Z,52.98
2018-05-23T01:43:11.921Z,53.56
2018-05-23T01:44:11.918Z,53.17
2018-05-23T01:45:11.933Z,53.66
2018-05-23T01:46:11.933Z,53.46
2018-05-23T01:47:11.989Z,53.56
2018-05-23T01:48:11.960Z,53.63
2018-05-23T01:49:11.966Z,53.17
2018-05-23T01:50:11.972Z,53.72
2018-05-23T01:51:11.974Z,53.91
2018-05-23T01:52:12.030Z,54.39
2018-05-23T01:53:12.043Z,54.04
2018-05-23T01:54:12.014Z,54.68
2018-05-23T01:55:12.053Z,54.21
2018-05-23T01:56:12.050Z,54.01
2018-05-23T01:57:12.104Z,54.11
2018-05-23T01:58:12.152Z,54.01
2018-05-23T01:59:12.076Z,54.68
2018-05-23T02:00:12.080Z,54.11
2018-05-23T02:01:12.149Z,54.78
2018-05-23T02:02:12.125Z,54.68
2018-05-23T02:03:12.172Z,54.68
2018-05-23T02:04:12.191Z,54.58
2018-05-23T02:05:12.166Z,54.78
2018-05-23T02:06:12.166Z,54.30
2018-05-23T02:07:12.195Z,54.01
2018-05-23T02:08:12.177Z,54.30
2018-05-23T02:09:12.248Z,54.97
2018-05-23T02:10:12.206Z,54.58
2018-05-23T02:11:12.240Z,54.88
2018-05-23T02:12:12.226Z,54.97
2018-05-23T02:13:12.236Z,55.35
2018-05-23T02:14:12.285Z,54.49
2018-05-23T02:15:12.286Z,54.78
2018-05-23T02:16:12.283Z,54.68
2018-05-23T02:17:12.331Z,54.68
2018-05-23T02:18:12.399Z,54.68
2018-05-23T02:19:12.317Z,54.78
2018-05-23T02:20:12.324Z,54.88
2018-05-23T02:21:12.350Z,54.39
2018-05-23T02:22:12.423Z,54.68
2018-05-23T02:23:12.418Z,54.88
2018-05-23T02:24:12.373Z,55.07
2018-05-23T02:25:12.384Z,54.97
2018-05-23T02:26:12.437Z,54.78
2018-05-23T02:27:12.407Z,54.30
2018-05-23T02:28:12.448Z,54.39
2018-05-23T02:29:12.459Z,54.58
2018-05-23T02:30:12.502Z,54.49
2018-05-23T02:31:12.461Z,54.30
2018-05-23T02:32:12.488Z,54.49
2018-05-23T02:33:12.499Z,54.49
2018-05-23T02:34:12.554Z,54.49
2018-05-23T02:35:12.747Z,54.88
2018-05-23T02:36:12.505Z,54.58
2018-05-23T02:37:12.534Z,54.58
2018-05-23T02:38:12.532Z,54.58
2018-05-23T02:39:12.545Z,54.58
2018-05-23T02:40:12.548Z,54.58
2018-05-23T02:41:12.598Z,54.68
2018-05-23T02:42:12.579Z,55.55
2018-05-23T02:43:12.591Z,54.97
2018-05-23T02:44:12.600Z,54.88
2018-05-23T02:45:12.609Z,54.97
2018-05-23T02:46:12.645Z,55.07
2018-05-23T02:47:12.855Z,54.88
2018-05-23T02:48:12.661Z,54.58
2018-05-23T02:49:12.657Z,54.97
2018-05-23T02:50:12.662Z,54.97
2018-05-23T02:51:12.714Z,54.88
2018-05-23T02:52:12.686Z,54.97
2018-05-23T02:53:12.685Z,54.68
2018-05-23T02:54:12.729Z,54.58
2018-05-23T02:55:12.710Z,54.68
2018-05-23T02:56:12.770Z,54.78
2018-05-23T02:57:12.774Z,54.88
2018-05-23T02:58:12.760Z,54.78
2018-05-23T02:59:12.789Z,54.68
2018-05-23T03:00:12.772Z,54.68
2018-05-23T03:01:12.792Z,54.58
2018-05-23T03:02:12.842Z,54.78
2018-05-23T03:03:12.806Z,54.97
2018-05-23T03:04:12.847Z,54.88
2018-05-23T03:05:12.832Z,54.97
2018-05-23T03:06:12.841Z,54.58
2018-05-23T03:07:12.850Z,54.58
2018-05-23T03:08:12.853Z,55.26
2018-05-23T03:09:12.901Z,54.97
2018-05-23T03:10:12.910Z,54.88
2018-05-23T03:11:12.901Z,55.26
2018-05-23T03:12:12.918Z,55.07
2018-05-23T03:13:12.943Z,54.88
2018-05-23T03:14:13.015Z,55.55
2018-05-23T03:15:12.944Z,55.07
2018-05-23T03:16:12.957Z,55.45
2018-05-23T03:17:13.000Z,55.55
2018-05-23T03:18:12.970Z,54.88
2018-05-23T03:19:13.011Z,55.35
2018-05-23T03:20:13.012Z,55.16
2018-05-23T03:21:13.080Z,54.97
2018-05-23T03:22:13.078Z,55.07
2018-05-23T03:23:13.031Z,55.35
2018-05-23T03:24:13.059Z,55.07
2018-05-23T03:25:13.061Z,55.55
2018-05-23T03:26:13.059Z,55.45
2018-05-23T03:27:13.125Z,55.45
2018-05-23T03:28:13.091Z,55.35
2018-05-23T03:29:13.126Z,54.88
2018-05-23T03:30:13.105Z,55.07
2018-05-23T03:31:13.117Z,55.07
2018-05-23T03:32:13.165Z,54.78
2018-05-23T03:33:13.176Z,55.16
2018-05-23T03:34:13.158Z,55.16
2018-05-23T03:35:13.169Z,55.35
2018-05-23T03:36:13.197Z,54.58
2018-05-23T03:37:13.228Z,54.88
2018-05-23T03:38:13.205Z,54.88
2018-05-23T03:39:13.264Z,54.78
2018-05-23T03:40:13.300Z,55.45
2018-05-23T03:41:13.235Z,54.97
2018-05-23T03:42:13.241Z,54.80
2018-05-23T03:43:13.294Z,54.88
2018-05-23T03:44:13.345Z,54.80
2018-05-23T03:45:13.300Z,54.80
2018-05-23T03:46:13.307Z,54.61
2018-05-23T03:47:13.303Z,54.80
2018-05-23T03:48:13.327Z,54.52
2018-05-23T03:49:13.365Z,54.80
2018-05-23T03:50:13.405Z,54.90
2018-05-23T03:51:13.386Z,54.71
2018-05-23T03:52:13.374Z,54.80
2018-05-23T03:53:13.366Z,54.80
2018-05-23T03:54:13.426Z,55.00
2018-05-23T03:55:13.423Z,54.52
2018-05-23T03:56:13.446Z,54.42
2018-05-23T03:57:13.432Z,54.13
2018-05-23T03:58:13.450Z,54.23
2018-05-23T03:59:13.456Z,54.33
2018-05-23T04:00:13.464Z,54.42
2018-05-23T04:01:13.521Z,54.23
2018-05-23T04:02:13.483Z,54.04
2018-05-23T04:03:13.498Z,54.23
2018-05-23T04:04:13.512Z,54.23
2018-05-23T04:05:13.543Z,54.06
2018-05-23T04:06:13.567Z,54.16
2018-05-23T04:07:13.593Z,54.06
2018-05-23T04:08:13.567Z,53.87
2018-05-23T04:09:13.565Z,53.20
2018-05-23T04:10:13.581Z,53.49
2018-05-23T04:11:13.583Z,53.11
2018-05-23T04:12:13.651Z,53.11
2018-05-23T04:13:13.600Z,53.11
2018-05-23T04:14:13.643Z,53.49
2018-05-23T04:15:13.649Z,53.01
2018-05-23T04:16:13.729Z,52.91
2018-05-23T04:17:13.686Z,52.55
2018-05-23T04:18:13.695Z,52.46
2018-05-23T04:19:13.691Z,52.65
2018-05-23T04:20:13.698Z,52.46
2018-05-23T04:21:13.701Z,52.36
2018-05-23T04:22:13.723Z,52.55
2018-05-23T04:23:13.772Z,52.65
2018-05-23T04:24:13.757Z,52.55
2018-05-23T04:25:13.762Z,52.55
2018-05-23T04:26:13.772Z,51.69
2018-05-23T04:27:13.801Z,51.43
2018-05-23T04:28:13.858Z,51.72
2018-05-23T04:29:13.812Z,51.43
2018-05-23T04:30:13.818Z,51.33
2018-05-23T04:31:13.829Z,51.23
2018-05-23T04:32:13.845Z,50.95
2018-05-23T04:33:13.889Z,50.68
2018-05-23T04:34:13.863Z,50.78
2018-05-23T04:35:13.898Z,50.59
2018-05-23T04:36:13.921Z,50.49
2018-05-23T04:37:13.914Z,50.20
2018-05-23T04:38:13.930Z,50.10
2018-05-23T04:39:13.940Z,49.55
2018-05-23T04:40:13.943Z,49.27
2018-05-23T04:41:14.003Z,49.84
2018-05-23T04:42:13.967Z,49.84
2018-05-23T04:43:13.987Z,49.65
2018-05-23T04:44:13.992Z,49.07
2018-05-23T04:45:14.031Z,48.81
2018-05-23T04:46:14.035Z,48.52
2018-05-23T04:47:14.032Z,48.13
2018-05-23T04:48:14.096Z,47.67
2018-05-23T04:49:14.078Z,47.77
2018-05-23T04:50:14.062Z,46.91
2018-05-23T04:51:14.074Z,46.73
2018-05-23T04:52:14.105Z,45.99
2018-05-23T04:53:14.164Z,45.41
2018-05-23T04:54:14.123Z,45.04
2018-05-23T04:55:14.167Z,43.89
2018-05-23T04:56:14.156Z,43.50
2018-05-23T04:57:14.186Z,43.33
2018-05-23T04:58:14.207Z,43.24
2018-05-23T04:59:14.225Z,43.26
2018-05-23T05:00:14.228Z,41.81
2018-05-23T05:01:14.250Z,41.13
2018-05-23T05:02:14.228Z,41.63
2018-05-23T05:03:14.238Z,41.44
2018-05-23T05:04:14.280Z,41.08
2018-05-23T05:05:14.286Z,40.52
2018-05-23T05:06:14.326Z,40.13
2018-05-23T05:07:14.291Z,40.05
2018-05-23T05:08:14.324Z,39.09
2018-05-23T05:09:14.319Z,38.58
2018-05-23T05:10:14.354Z,38.31
2018-05-23T05:11:14.416Z,38.71
2018-05-23T05:12:14.362Z,38.45
2018-05-23T05:13:14.382Z,38.04
2018-05-23T05:14:14.417Z,38.25
2018-05-23T05:15:14.442Z,37.19
2018-05-23T05:16:14.523Z,37.21
2018-05-23T05:17:14.471Z,35.77
2018-05-23T05:18:14.489Z,35.01
2018-05-23T05:19:14.468Z,34.74
2018-05-23T05:20:14.551Z,33.88
2018-05-23T05:21:14.517Z,33.12
2018-05-23T05:22:14.538Z,33.12
2018-05-23T05:23:14.567Z,32.82
2018-05-23T05:24:14.558Z,32.35
2018-05-23T05:25:14.619Z,31.40
2018-05-23T05:26:14.590Z,31.40
2018-05-23T05:27:14.607Z,31.03
2018-05-23T05:28:14.606Z,30.72
2018-05-23T05:29:14.632Z,31.01
2018-05-23T05:30:14.724Z,31.01
2018-05-23T05:31:14.708Z,30.44
2018-05-23T05:32:14.682Z,30.41
2018-05-23T05:33:14.694Z,31.66
2018-05-23T05:34:14.754Z,32.23
2018-05-23T05:35:14.755Z,32.82
2018-05-23T05:36:14.824Z,32.64
2018-05-23T05:37:14.767Z,31.77
2018-05-23T05:38:14.791Z,31.77
2018-05-23T05:39:14.807Z,31.87
2018-05-23T05:40:14.823Z,31.70
2018-05-23T05:41:14.903Z,31.30
2018-05-23T05:42:14.928Z,31.30
2018-05-23T05:43:14.874Z,30.90
2018-05-23T05:44:14.918Z,32.07
2018-05-23T05:45:14.934Z,32.24
2018-05-23T05:46:14.926Z,32.81
2018-05-23T05:47:14.937Z,33.11
2018-05-23T05:48:14.957Z,34.04
2018-05-23T05:49:15.021Z,34.62
2018-05-23T05:50:15.392Z,34.70
2018-05-23T05:51:15.005Z,34.99
2018-05-23T05:52:15.027Z,35.09
2018-05-23T05:53:15.040Z,35.09
2018-05-23T05:54:15.058Z,36.14
2018-05-23T05:55:15.092Z,36.51
2018-05-23T05:56:15.156Z,37.17
2018-05-23T05:57:15.113Z,36.96
2018-05-23T05:58:15.120Z,37.54
2018-05-23T05:59:15.134Z,38.29
2018-05-23T06:00:15.171Z,38.74
2018-05-23T06:01:15.193Z,40.26
2018-05-23T06:02:15.264Z,40.94
2018-05-23T06:03:15.244Z,40.63
2018-05-23T06:04:15.227Z,40.99
2018-05-23T06:05:15.224Z,41.09
2018-05-23T06:06:15.235Z,41.48
2018-05-23T06:07:15.273Z,41.77
2018-05-23T06:08:15.322Z,41.96
2018-05-23T06:09:15.286Z,42.44
2018-05-23T06:10:15.320Z,42.27
2018-05-23T06:11:15.323Z,42.18
2018-05-23T06:12:15.326Z,42.35
2018-05-23T06:13:15.377Z,42.42
2018-05-23T06:14:15.396Z,43.48
2018-05-23T06:15:15.410Z,43.48
2018-05-23T06:16:15.396Z,43.38
2018-05-23T06:17:15.403Z,43.29
2018-05-23T06:18:15.409Z,43.55
2018-05-23T06:19:15.490Z,44.32
2018-05-23T06:20:15.465Z,44.42
2018-05-23T06:21:15.473Z,44.42
2018-05-23T06:22:15.548Z,44.62
2018-05-23T06:23:15.504Z,45.29
2018-05-23T06:24:15.528Z,45.20
2018-05-23T06:25:15.545Z,45.20
2018-05-23T06:26:15.582Z,45.48
2018-05-23T06:27:15.555Z,45.48
2018-05-23T06:28:15.562Z,45.36
2018-05-23T06:29:15.575Z,46.42
2018-05-23T06:30:15.669Z,46.04
2018-05-23T06:31:15.667Z,46.50
2018-05-23T06:32:15.629Z,47.85
2018-05-23T06:33:15.823Z,47.56
2018-05-23T06:34:15.640Z,47.39
2018-05-23T06:35:15.651Z,47.00
2018-05-23T06:36:15.653Z,47.56
2018-05-23T06:37:15.793Z,47.85
2018-05-23T06:38:15.699Z,48.13
2018-05-23T06:39:15.700Z,47.85
2018-05-23T06:40:15.732Z,47.67
2018-05-23T06:41:15.730Z,47.58
2018-05-23T06:42:15.793Z,47.10
2018-05-23T06:43:15.750Z,47.39
2018-05-23T06:44:15.805Z,47.29
2018-05-23T06:45:15.825Z,47.67
2018-05-23T06:46:15.801Z,47.49
2018-05-23T06:47:15.825Z,47.58
2018-05-23T06:48:15.819Z,47.67
2018-05-23T06:49:15.908Z,47.77
2018-05-23T06:50:15.845Z,48.44
2018-05-23T06:51:15.855Z,48.35
2018-05-23T06:52:15.916Z,47.77
2018-05-23T06:53:15.903Z,47.49
2018-05-23T06:54:15.955Z,47.49
2018-05-23T06:55:15.935Z,47.77
2018-05-23T06:56:15.976Z,47.49
2018-05-23T06:57:15.941Z,47.67
2018-05-23T06:58:15.950Z,47.87
2018-05-23T06:59:16.005Z,47.77
2018-05-23T07:00:16.030Z,48.54
2018-05-23T07:01:15.978Z,48.93
2018-05-23T07:02:16.006Z,48.54
2018-05-23T07:03:16.029Z,48.74
2018-05-23T07:04:16.043Z,48.44
2018-05-23T07:05:16.111Z,48.54
2018-05-23T07:06:16.060Z,48.54
2018-05-23T07:07:16.076Z,48.54
2018-05-23T07:08:16.107Z,48.44
2018-05-23T07:09:16.136Z,48.35
2018-05-23T07:10:16.125Z,48.54
2018-05-23T07:11:16.129Z,48.64
2018-05-23T07:12:16.207Z,48.35
2018-05-23T07:13:16.164Z,48.44
2018-05-23T07:14:16.165Z,47.58
2018-05-23T07:15:16.181Z,47.49
2018-05-23T07:16:16.184Z,47.49
2018-05-23T07:17:16.240Z,47.77
2018-05-23T07:18:16.258Z,47.49
2018-05-23T07:19:16.245Z,47.49
2018-05-23T07:20:16.250Z,48.06
2018-05-23T07:21:16.273Z,48.35
2018-05-23T07:22:16.268Z,48.16
2018-05-23T07:23:16.336Z,48.06
2018-05-23T07:24:16.292Z,47.87
2018-05-23T07:25:16.317Z,47.49
2018-05-23T07:26:16.338Z,47.87
2018-05-23T07:27:16.349Z,47.67
2018-05-23T07:28:16.369Z,47.97
2018-05-23T07:29:16.424Z,47.49
2018-05-23T07:30:16.386Z,47.51
2018-05-23T07:31:16.436Z,47.60
2018-05-23T07:32:16.415Z,47.58
2018-05-23T07:33:16.414Z,47.67
2018-05-23T07:34:16.463Z,47.87
2018-05-23T07:35:16.467Z,47.77
2018-05-23T07:36:16.532Z,47.67
2018-05-23T07:37:16.504Z,47.77
2018-05-23T07:38:16.536Z,47.60
2018-05-23T07:39:16.503Z,47.70
2018-05-23T07:40:16.518Z,47.12
2018-05-23T07:41:16.566Z,47.67
2018-05-23T07:42:16.570Z,47.29
2018-05-23T07:43:16.561Z,47.12
2018-05-23T07:44:16.568Z,47.31
2018-05-23T07:45:16.584Z,47.70
2018-05-23T07:46:16.602Z,47.70
2018-05-23T07:47:16.641Z,46.93
2018-05-23T07:48:16.656Z,47.41
2018-05-23T07:49:16.721Z,46.93
2018-05-23T07:50:16.647Z,47.31
2018-05-23T07:51:16.683Z,46.93
2018-05-23T07:52:16.676Z,47.31
2018-05-23T07:53:16.691Z,46.35
2018-05-23T07:54:16.744Z,46.45
2018-05-23T07:55:16.730Z,46.73
2018-05-23T07:56:16.721Z,46.64
2018-05-23T07:57:16.772Z,46.15
2018-05-23T07:58:16.772Z,46.45
2018-05-23T07:59:16.796Z,46.45
2018-05-23T08:00:16.819Z,46.35
2018-05-23T08:01:16.845Z,45.87
2018-05-23T08:02:16.818Z,46.06
2018-05-23T08:03:16.831Z,46.18
2018-05-23T08:04:16.866Z,45.97
2018-05-23T08:05:16.852Z,46.35
2018-05-23T08:06:16.883Z,45.99
2018-05-23T08:07:16.937Z,45.70
2018-05-23T08:08:16.880Z,46.08
2018-05-23T08:09:16.928Z,46.28
2018-05-23T08:10:16.926Z,45.99
2018-05-23T08:11:16.944Z,46.47
2018-05-23T08:12:16.969Z,46.47
2018-05-23T08:13:16.996Z,46.08
2018-05-23T08:14:16.985Z,46.08
2018-05-23T08:15:17.004Z,46.08
2018-05-23T08:16:17.010Z,45.99
2018-05-23T08:17:17.008Z,45.70
2018-05-23T08:18:17.101Z,45.70
2018-05-23T08:19:17.033Z,46.47
2018-05-23T08:20:17.067Z,45.70
2018-05-23T08:21:17.070Z,45.31
2018-05-23T08:22:17.077Z,45.99
2018-05-23T08:23:17.117Z,45.89
2018-05-23T08:24:17.172Z,45.89
2018-05-23T08:25:17.140Z,46.28
2018-05-23T08:26:17.195Z,45.77
2018-05-23T08:27:17.146Z,46.25
2018-05-23T08:28:17.154Z,46.08
2018-05-23T08:29:17.163Z,46.28
2018-05-23T08:30:17.189Z,46.28
2018-05-23T08:31:17.262Z,46.08
2018-05-23T08:32:17.243Z,45.79
2018-05-23T08:33:17.291Z,46.47
2018-05-23T08:34:17.248Z,46.28
2018-05-23T08:35:17.262Z,45.60
2018-05-23T08:36:17.316Z,45.70
2018-05-23T08:37:17.339Z,45.89
2018-05-23T08:38:17.337Z,45.89
2018-05-23T08:39:17.299Z,45.51
2018-05-23T08:40:17.362Z,45.60
2018-05-23T08:41:17.357Z,45.21
2018-05-23T08:42:17.358Z,45.03
2018-05-23T08:43:17.378Z,44.25
2018-05-23T08:44:17.424Z,44.18
2018-05-23T08:45:17.418Z,43.96
2018-05-23T08:46:17.418Z,43.79
2018-05-23T08:47:17.428Z,44.08
2018-05-23T08:48:17.450Z,43.98
2018-05-23T08:49:17.488Z,43.89
2018-05-23T08:50:17.513Z,43.89
2018-05-23T08:51:17.475Z,42.73
2018-05-23T08:52:17.503Z,42.44
2018-05-23T08:53:17.498Z,43.31
2018-05-23T08:54:17.520Z,43.12
2018-05-23T08:55:17.585Z,42.83
2018-05-23T08:56:17.554Z,42.35
2018-05-23T08:57:17.564Z,42.54
2018-05-23T08:58:17.571Z,42.44
2018-05-23T08:59:17.640Z,42.54
2018-05-23T09:00:17.646Z,40.99
2018-05-23T09:01:17.645Z,40.61
2018-05-23T09:02:17.619Z,41.77
2018-05-23T09:03:17.673Z,42.25
2018-05-23T09:04:17.676Z,42.94
2018-05-23T09:05:17.680Z,42.18
2018-05-23T09:06:17.684Z,42.08
2018-05-23T09:07:17.746Z,41.09
2018-05-23T09:08:17.700Z,42.36
2018-05-23T09:09:17.733Z,41.98
2018-05-23T09:10:17.748Z,41.88
2018-05-23T09:11:17.768Z,41.50
2018-05-23T09:12:17.801Z,41.11
2018-05-23T09:13:17.789Z,40.82
2018-05-23T09:14:17.799Z,40.92
2018-05-23T09:15:17.797Z,40.53
2018-05-23T09:16:17.812Z,39.95
2018-05-23T09:17:17.861Z,40.24
2018-05-23T09:18:17.924Z,40.05
2018-05-23T09:19:17.868Z,39.66
2018-05-23T09:20:17.883Z,40.15
2018-05-23T09:21:17.887Z,40.15
2018-05-23T09:22:17.904Z,38.70
2018-05-23T09:23:17.972Z,38.70
2018-05-23T09:24:17.943Z,39.28
2018-05-23T09:25:18.039Z,38.60
2018-05-23T09:26:17.977Z,38.02
2018-05-23T09:27:17.969Z,38.70
2018-05-23T09:28:18.031Z,38.60
2018-05-23T09:29:18.012Z,39.20
2018-05-23T09:30:18.019Z,38.71
2018-05-23T09:31:18.048Z,38.62
2018-05-23T09:32:18.133Z,38.33
2018-05-23T09:33:18.108Z,38.89
2018-05-23T09:34:18.127Z,39.29
2018-05-23T09:35:18.092Z,38.60
2018-05-23T09:36:18.097Z,39.09
2018-05-23T09:37:18.107Z,39.09
2018-05-23T09:38:18.130Z,39.09
2018-05-23T09:39:18.244Z,38.71
2018-05-23T09:40:18.176Z,39.29
2018-05-23T09:41:18.182Z,39.78
2018-05-23T09:42:18.194Z,39.87
2018-05-23T09:43:18.207Z,39.69
2018-05-23T09:44:18.239Z,39.87
2018-05-23T09:45:18.257Z,39.39
2018-05-23T09:46:18.248Z,39.97
2018-05-23T09:47:18.261Z,38.99
2018-05-23T09:48:18.342Z,39.49
2018-05-23T09:49:18.287Z,39.49
2018-05-23T09:50:18.301Z,39.01
2018-05-23T09:51:18.358Z,39.39
2018-05-23T09:52:18.320Z,39.87
2018-05-23T09:53:18.399Z,38.81
2018-05-23T09:54:18.369Z,39.39
2018-05-23T09:55:18.403Z,39.49
2018-05-23T09:56:18.389Z,39.69
2018-05-23T09:57:18.401Z,39.39
2018-05-23T09:58:18.437Z,39.39
2018-05-23T09:59:18.416Z,39.01
2018-05-23T10:00:18.459Z,39.29
2018-05-23T10:01:18.482Z,39.39
2018-05-23T10:02:18.493Z,39.41
2018-05-23T10:03:18.496Z,39.87
2018-05-23T10:04:18.494Z,39.41
2018-05-23T10:05:18.529Z,39.22
2018-05-23T10:06:18.561Z,39.03
2018-05-23T10:07:18.568Z,39.41
2018-05-23T10:08:18.559Z,39.41
2018-05-23T10:09:18.577Z,38.35
2018-05-23T10:10:18.584Z,37.87
2018-05-23T10:11:18.597Z,38.16
2018-05-23T10:12:18.650Z,38.16
2018-05-23T10:13:18.698Z,38.06
2018-05-23T10:14:18.638Z,38.74
2018-05-23T10:15:18.673Z,37.48
2018-05-23T10:16:18.681Z,37.48
2018-05-23T10:17:18.689Z,36.80
2018-05-23T10:18:18.746Z,36.80
2018-05-23T10:19:18.724Z,37.29
2018-05-23T10:20:18.744Z,37.00
2018-05-23T10:21:18.771Z,37.00
2018-05-23T10:22:18.759Z,36.71
2018-05-23T10:23:18.805Z,37.38
2018-05-23T10:24:18.849Z,36.90
2018-05-23T10:25:18.839Z,36.61
2018-05-23T10:26:18.873Z,36.80
2018-05-23T10:27:18.875Z,38.45
2018-05-23T10:28:18.870Z,37.48
2018-05-23T10:29:18.885Z,36.90
2018-05-23T10:30:18.930Z,36.80
2018-05-23T10:31:18.911Z,37.00
2018-05-23T10:32:18.918Z,37.38
2018-05-23T10:33:18.947Z,38.35
2018-05-23T10:34:18.959Z,37.58
2018-05-23T10:35:18.997Z,37.77
2018-05-23T10:36:18.979Z,37.96
2018-05-23T10:37:18.988Z,38.54
2018-05-23T10:38:19.063Z,37.58
2018-05-23T10:39:19.012Z,38.16
2018-05-23T10:40:19.012Z,37.00
2018-05-23T10:41:19.056Z,37.08
2018-05-23T10:42:19.044Z,36.71
2018-05-23T10:43:19.120Z,36.80
2018-05-23T10:44:19.079Z,36.80
2018-05-23T10:45:19.099Z,36.90
2018-05-23T10:46:19.136Z,36.80
2018-05-23T10:47:19.120Z,36.71
2018-05-23T10:48:19.161Z,35.84
2018-05-23T10:49:19.147Z,35.64
2018-05-23T10:50:19.185Z,36.22
2018-05-23T10:51:19.186Z,35.64
2018-05-23T10:52:19.194Z,35.74
2018-05-23T10:53:19.263Z,35.94
2018-05-23T10:54:19.208Z,36.52
2018-05-23T10:55:19.300Z,35.64
2018-05-23T10:56:19.270Z,36.32
2018-05-23T10:57:19.268Z,35.84
2018-05-23T10:58:19.319Z,35.74
2018-05-23T10:59:19.291Z,35.64
2018-05-23T11:00:19.320Z,35.94
2018-05-23T11:01:19.331Z,36.22
2018-05-23T11:02:19.379Z,36.32
2018-05-23T11:03:19.375Z,36.32
2018-05-23T11:04:19.374Z,36.52
2018-05-23T11:05:19.461Z,36.61
2018-05-23T11:06:19.406Z,37.21
2018-05-23T11:07:19.423Z,36.05
2018-05-23T11:08:19.431Z,36.15
2018-05-23T11:09:19.441Z,35.76
2018-05-23T11:10:19.556Z,35.86
2018-05-23T11:11:19.493Z,35.66
2018-05-23T11:12:19.497Z,35.47
2018-05-23T11:13:19.552Z,35.57
2018-05-23T11:14:19.526Z,35.26
2018-05-23T11:15:19.645Z,35.26
2018-05-23T11:16:19.535Z,35.06
2018-05-23T11:17:19.571Z,34.68
2018-05-23T11:18:19.584Z,35.06
2018-05-23T11:19:19.587Z,35.26
2018-05-23T11:20:19.620Z,35.55
2018-05-23T11:21:19.666Z,35.57
2018-05-23T11:22:19.655Z,35.84
2018-05-23T11:23:19.631Z,35.64
2018-05-23T11:24:19.681Z,35.74
2018-05-23T11:25:19.705Z,36.24
2018-05-23T11:26:19.703Z,36.05
2018-05-23T11:27:19.828Z,35.66
2018-05-23T11:28:19.739Z,35.76
2018-05-23T11:29:19.722Z,35.37
2018-05-23T11:30:19.736Z,35.66
2018-05-23T11:31:19.832Z,35.86
2018-05-23T11:32:19.844Z,35.47
2018-05-23T11:33:19.811Z,35.28
2018-05-23T11:34:19.818Z,35.66
2018-05-23T11:35:19.880Z,34.89
2018-05-23T11:36:19.896Z,34.99
2018-05-23T11:37:19.856Z,35.47
2018-05-23T11:38:19.868Z,35.18
2018-05-23T11:39:19.893Z,34.79
2018-05-23T11:40:19.952Z,34.70
2018-05-23T11:41:19.909Z,34.60
2018-05-23T11:42:19.924Z,34.79
2018-05-23T11:43:19.960Z,34.89
2018-05-23T11:44:19.975Z,34.70
2018-05-23T11:45:19.994Z,34.99
2018-05-23T11:46:20.006Z,34.81
2018-05-23T11:47:20.052Z,34.91
2018-05-23T11:48:20.001Z,35.20
2018-05-23T11:49:20.025Z,35.20
2018-05-23T11:50:20.052Z,34.81
2018-05-23T11:51:20.073Z,35.00
2018-05-23T11:52:20.122Z,34.91
2018-05-23T11:53:20.090Z,34.62
2018-05-23T11:54:20.102Z,34.13
2018-05-23T11:55:20.118Z,34.04
2018-05-23T11:56:20.132Z,34.42
2018-05-23T11:57:20.169Z,33.73
2018-05-23T11:58:20.170Z,33.65
2018-05-23T11:59:20.218Z,33.36
2018-05-23T12:00:20.201Z,32.78
2018-05-23T12:01:20.193Z,33.55
2018-05-23T12:02:20.212Z,33.63
2018-05-23T12:03:20.226Z,32.97
2018-05-23T12:04:20.280Z,32.28
2018-05-23T12:05:20.323Z,32.68
2018-05-23T12:06:20.299Z,32.49
2018-05-23T12:07:20.299Z,32.59
2018-05-23T12:08:20.306Z,32.18
2018-05-23T12:09:20.362Z,32.10
2018-05-23T12:10:20.360Z,32.20
2018-05-23T12:11:20.364Z,32.10
2018-05-23T12:12:20.381Z,32.09
2018-05-23T12:13:20.395Z,31.99
2018-05-23T12:14:20.490Z,32.10
2018-05-23T12:15:20.417Z,31.81
2018-05-23T12:16:20.416Z,32.01
2018-05-23T12:17:20.430Z,32.67
2018-05-23T12:18:20.601Z,32.78
2018-05-23T12:19:20.528Z,31.81
2018-05-23T12:20:20.498Z,31.52
2018-05-23T12:21:20.544Z,32.01
2018-05-23T12:22:20.516Z,31.62
2018-05-23T12:23:20.540Z,31.81
2018-05-23T12:24:20.571Z,31.33
2018-05-23T12:25:20.573Z,31.81
2018-05-23T12:26:20.657Z,32.01
2018-05-23T12:27:20.582Z,30.55
2018-05-23T12:28:20.631Z,30.75
2018-05-23T12:29:20.609Z,31.33
2018-05-23T12:30:20.643Z,30.36
2018-05-23T12:31:20.674Z,30.46
2018-05-23T12:32:20.684Z,30.36
2018-05-23T12:33:20.697Z,30.36
2018-05-23T12:34:20.747Z,30.27
2018-05-23T12:35:20.809Z,30.28
2018-05-23T12:36:20.738Z,29.69
2018-05-23T12:37:20.772Z,29.78
2018-05-23T12:38:20.758Z,29.88
2018-05-23T12:39:20.831Z,29.88
2018-05-23T12:40:20.792Z,29.97
2018-05-23T12:41:20.804Z,29.90
2018-05-23T12:42:20.837Z,29.39
2018-05-23T12:43:20.820Z,29.69
2018-05-23T12:44:20.871Z,30.18
2018-05-23T12:45:20.980Z,30.38
2018-05-23T12:46:20.885Z,30.18
2018-05-23T12:47:20.894Z,30.27
2018-05-23T12:48:20.899Z,30.47
2018-05-23T12:49:20.957Z,30.38
2018-05-23T12:50:20.967Z,30.28
2018-05-23T12:51:20.966Z,29.99
2018-05-23T12:52:20.973Z,30.38